Airfield :
LOGIN :

Register | Disclaimer

   EN    FR    IT 

 










Legend :    VFR   Marginal VFR   IFR   Intensive IFR   Very Intensive IFR
Visi :
Ceiling :
>= 8 km
>= 3000ft
5 to 8 km
1000 to 3000 ft
1500m to 5 km
500 to 1000 ft
800 to 1500m
200 to 500 ft
< 800m
< 200 ft
Symbols :   Thunderstorms  Fog  Heavy snow  Heavy precipitations  Wind > 20 kt
SIGMETs :     Misc.  Thunderstorms  Icing  Turbulence  Mountain Waves  Volcanic Ashes






- Airport Elevation : 157 ft
- IATA code : LIL


LFQQ - Lille Lesquin

CURRENT METAR :
  • 230530Z AUTO VRB01KT 1100 0900 R26/1800U R08/1500U BCFG FEW004 05/04 Q1026 TEMPO 3000 MIFG

EXPIRED METARs :
  • 230500Z AUTO 20002KT 7000 2300 NSC 06/05 Q1025 TEMPO 3000 MIFG
  • 230430Z AUTO 16001KT 6000 0550 R26/0500D R08/1500D BCFG NSC 06/05 Q1025 TEMPO 3000 MIFG
  • 230400Z AUTO 00000KT CAVOK 06/05 Q1025 TEMPO 3000 MIFG
  • 230330Z AUTO 18002KT 9999 FEW021 07/06 Q1025 TEMPO 3000 MIFG
  • 230300Z AUTO VRB01KT 9999 FEW022 BKN066 07/06 Q1025 TEMPO 3000 MIFG

TAF TAF LFQQ
Valid from the 23 at 00:00 until the 24 at 06:00 UTC


222300Z 2300/2406 24004KT CAVOK
TEMPO 2302/2308 3000 MIFG
ATIS : +33 3 20 16 19 54



MET'MAP, your aeronautical weather chart ! - Copyright ORBIFLY December 2007 - Disclaimer

ORBIFLY MET'MAP TEAM :

Programming & Development : Alexandra Zaïnal
Concept & original design : Baudouin d'Aumeries
Assistance for programming : Marc-Olivier Méhu
Technical & hardware support : Manuel Goepfert

Contact : metmap@orbifly.com




SOURCES & CREDITS :

   NOAA